Terminal Aerodrome Forecast
Issued by NWS

Home | Current Version | Previous Version | Text Only | Print | Product List | Glossary On
Versions: 1 2 3 4 5 6 7 8 9 10 11 12 13
894
FTUS42 KFFC 222328
TAFRYY
TAF
KRYY 222328Z 2300/2324 10009KT P6SM BKN040
     FM230400 11009KT P6SM OVC025
     FM230600 12009KT P6SM VCSH OVC008
     FM230900 13009KT 5SM -SHRA OVC010 PROB30 2310/2314 VRB10G20KT
      3SM TSRA BKN010CB
     FM231400 21012G20KT 3SM SHRA OVC010
     FM231600 21009KT P6SM VCSH SCT040=

USA.gov is the U.S. government's official web portal to all federal, state and local government web resources and services.